createdAt,value
2023-01-10T00:02:11.075Z,9.80
2023-01-10T00:04:40.760Z,10.30
2023-01-10T00:07:08.977Z,9.60
2023-01-10T00:09:37.214Z,10.00
2023-01-10T00:12:23.357Z,9.50
2023-01-10T00:14:52.730Z,10.10
2023-01-10T00:17:21.175Z,10.90
2023-01-10T00:19:50.862Z,11.10
2023-01-10T00:22:24.972Z,9.50
2023-01-10T00:24:53.601Z,9.70
2023-01-10T00:27:23.624Z,8.90
2023-01-10T00:29:53.920Z,9.10
2023-01-10T00:32:22.803Z,8.90
2023-01-10T00:34:52.429Z,10.20
2023-01-10T00:39:49.311Z,9.80
2023-01-10T00:42:35.248Z,9.50
2023-01-10T00:45:03.519Z,9.70
2023-01-10T00:50:01.841Z,10.20
2023-01-10T00:52:30.128Z,9.50
2023-01-10T00:57:27.243Z,9.40
2023-01-10T00:59:55.565Z,9.90
2023-01-10T01:02:24.087Z,10.20
2023-01-10T01:07:22.371Z,10.80
2023-01-10T01:10:08.025Z,11.20
2023-01-10T01:12:36.292Z,10.80
2023-01-10T01:15:05.013Z,10.30
2023-01-10T01:17:33.326Z,10.60
2023-01-10T01:20:01.614Z,11.30
2023-01-10T01:22:31.225Z,11.10
2023-01-10T01:24:59.458Z,10.30
2023-01-10T01:27:27.717Z,10.40
2023-01-10T01:29:55.952Z,10.50
2023-01-10T01:32:24.733Z,10.40
2023-01-10T01:39:51.744Z,10.70
2023-01-10T01:42:27.395Z,11.20
2023-01-10T01:45:38.658Z,11.10
2023-01-10T01:48:18.361Z,11.40
2023-01-10T01:50:54.906Z,11.30
2023-01-10T01:53:30.904Z,11.20
2023-01-10T01:56:05.254Z,11.30
2023-01-10T02:03:43.741Z,11.70
2023-01-10T02:06:12.885Z,10.20
2023-01-10T02:08:50.619Z,10.00
2023-01-10T02:11:20.344Z,10.60
2023-01-10T02:13:50.083Z,10.70
2023-01-10T02:16:18.796Z,10.40
2023-01-10T02:18:47.221Z,10.80
2023-01-10T02:21:53.219Z,11.00
2023-01-10T02:25:16.129Z,11.50
2023-01-10T02:36:31.663Z,10.40
2023-01-10T02:39:06.386Z,9.60
2023-01-10T02:41:45.429Z,10.20
2023-01-10T02:44:21.278Z,11.10
2023-01-10T02:46:50.648Z,10.90
2023-01-10T02:49:20.508Z,10.60
2023-01-10T02:51:48.955Z,11.10
2023-01-10T02:54:21.023Z,10.90
2023-01-10T02:57:29.948Z,9.80
2023-01-10T03:00:18.576Z,10.20
2023-01-10T03:03:09.993Z,10.40
2023-01-10T03:05:53.933Z,10.20
2023-01-10T03:08:34.592Z,10.90
2023-01-10T03:11:06.836Z,10.60
2023-01-10T03:13:41.283Z,10.40
2023-01-10T03:16:14.960Z,9.40
2023-01-10T03:18:50.056Z,9.20
2023-01-10T03:21:22.216Z,9.50
2023-01-10T03:23:55.034Z,8.50
2023-01-10T03:26:32.035Z,9.90
2023-01-10T03:29:07.455Z,10.40
2023-01-10T03:31:43.627Z,10.40
2023-01-10T03:34:12.046Z,10.80
2023-01-10T03:36:51.191Z,10.30
2023-01-10T03:39:26.320Z,10.70
2023-01-10T03:42:03.168Z,10.20
2023-01-10T03:44:44.178Z,10.70
2023-01-10T03:47:23.572Z,10.60
2023-01-10T03:49:57.634Z,10.70
2023-01-10T03:52:28.522Z,9.80
2023-01-10T03:54:59.026Z,10.50
2023-01-10T03:57:28.276Z,10.90
2023-01-10T03:59:59.309Z,10.60
2023-01-10T04:02:30.727Z,10.50
2023-01-10T04:05:00.016Z,10.80
2023-01-10T04:07:29.707Z,10.40
2023-01-10T04:09:58.220Z,9.40
2023-01-10T04:12:26.643Z,8.90
2023-01-10T04:14:55.066Z,9.30
2023-01-10T04:17:23.396Z,10.50
2023-01-10T04:19:51.725Z,10.40
2023-01-10T04:22:20.128Z,9.50
2023-01-10T04:24:51.437Z,9.20
2023-01-10T04:27:20.263Z,9.50
2023-01-10T04:29:48.756Z,9.60
2023-01-10T04:32:17.194Z,9.80
2023-01-10T04:34:45.498Z,9.40
2023-01-10T04:37:13.813Z,10.30
2023-01-10T04:39:42.790Z,10.10
2023-01-10T04:42:12.513Z,10.20
2023-01-10T04:44:40.788Z,9.20
2023-01-10T04:47:09.103Z,8.50
2023-01-10T04:49:37.436Z,8.80
2023-01-10T04:52:05.770Z,9.10
2023-01-10T04:54:34.060Z,9.80
2023-01-10T04:57:02.399Z,10.50
2023-01-10T05:06:58.131Z,10.80
2023-01-10T05:09:26.422Z,10.40
2023-01-10T05:11:55.198Z,10.40
2023-01-10T05:14:23.461Z,10.20
2023-01-10T05:16:53.266Z,9.10
2023-01-10T05:19:21.576Z,9.60
2023-01-10T05:21:50.237Z,9.00
2023-01-10T05:24:18.540Z,10.00
2023-01-10T05:26:46.853Z,10.30
2023-01-10T05:29:15.551Z,10.40
2023-01-10T05:31:43.967Z,10.40
2023-01-10T05:34:14.505Z,10.70
2023-01-10T05:36:42.823Z,10.90
2023-01-10T05:39:11.107Z,10.30
2023-01-10T05:41:39.412Z,9.50
2023-01-10T05:44:08.053Z,9.60
2023-01-10T05:46:36.432Z,10.10
2023-01-10T05:49:04.904Z,10.50
2023-01-10T05:51:34.626Z,10.60
2023-01-10T05:54:03.122Z,10.30
2023-01-10T05:56:31.571Z,10.30
2023-01-10T05:59:07.754Z,10.50
2023-01-10T06:01:40.022Z,10.90
2023-01-10T06:04:08.376Z,10.70
2023-01-10T06:06:37.998Z,10.80
2023-01-10T06:09:06.397Z,10.90
2023-01-10T06:11:37.537Z,11.00
2023-01-10T06:14:07.341Z,10.90
2023-01-10T06:16:35.631Z,10.90
2023-01-10T06:19:04.061Z,9.40
2023-01-10T06:21:32.346Z,10.10
2023-01-10T06:24:02.037Z,10.10
2023-01-10T06:26:30.332Z,10.40
2023-01-10T06:28:59.683Z,9.80
2023-01-10T06:31:28.557Z,10.00
2023-01-10T06:33:56.908Z,9.70
2023-01-10T06:36:25.192Z,9.80
2023-01-10T06:38:53.487Z,10.30
2023-01-10T06:41:23.108Z,9.90
2023-01-10T06:43:51.425Z,10.40
2023-01-10T06:46:21.205Z,10.80
2023-01-10T06:48:49.739Z,10.70
2023-01-10T06:51:20.164Z,10.90
2023-01-10T06:53:48.815Z,10.40
2023-01-10T06:56:17.109Z,10.90
2023-01-10T06:58:49.956Z,11.00
2023-01-10T07:01:21.480Z,10.80
2023-01-10T07:03:50.364Z,10.90
2023-01-10T07:06:18.719Z,11.10
2023-01-10T07:08:48.153Z,10.40
2023-01-10T07:11:17.728Z,11.00
2023-01-10T07:13:47.384Z,10.50
2023-01-10T07:16:17.604Z,10.70
2023-01-10T07:18:46.003Z,9.90
2023-01-10T07:21:16.868Z,10.70
2023-01-10T07:23:45.307Z,10.60
2023-01-10T07:26:17.726Z,11.00
2023-01-10T07:28:51.461Z,10.40
2023-01-10T07:31:23.754Z,10.00
2023-01-10T07:33:53.120Z,10.20
2023-01-10T07:36:21.493Z,10.70
2023-01-10T07:38:49.806Z,9.40
2023-01-10T07:41:18.120Z,10.50
2023-01-10T07:43:48.832Z,10.60
2023-01-10T07:46:17.431Z,10.70
2023-01-10T07:48:46.990Z,10.90
2023-01-10T07:53:43.935Z,10.60
2023-01-10T07:56:12.676Z,9.90
2023-01-10T07:58:40.951Z,9.90
2023-01-10T08:01:10.737Z,9.80
2023-01-10T08:03:39.148Z,10.20
2023-01-10T08:06:11.218Z,10.50
2023-01-10T08:08:40.171Z,10.10
2023-01-10T08:11:08.915Z,10.00
2023-01-10T08:13:37.222Z,9.90
2023-01-10T08:16:11.257Z,10.00
2023-01-10T08:18:42.500Z,9.90
2023-01-10T08:21:11.334Z,9.50
2023-01-10T08:23:39.615Z,9.90
2023-01-10T08:26:08.051Z,10.20
2023-01-10T08:28:36.321Z,10.10
2023-01-10T08:31:08.006Z,10.40
2023-01-10T08:33:40.770Z,9.60
2023-01-10T08:36:17.188Z,9.50
2023-01-10T08:38:46.031Z,9.50
2023-01-10T08:41:14.780Z,9.80
2023-01-10T08:43:43.006Z,9.90
2023-01-10T08:46:11.410Z,10.00
2023-01-10T08:48:41.188Z,10.10
2023-01-10T08:51:10.961Z,9.70
2023-01-10T08:53:41.120Z,9.90
2023-01-10T08:56:10.095Z,10.00
2023-01-10T08:58:38.412Z,8.90
2023-01-10T09:01:07.436Z,8.70
2023-01-10T09:03:36.492Z,9.20
2023-01-10T09:06:07.016Z,9.70
2023-01-10T09:08:35.693Z,9.80
2023-01-10T09:11:04.542Z,9.20
2023-01-10T09:13:33.923Z,9.10
2023-01-10T09:16:02.355Z,8.60
2023-01-10T09:23:29.247Z,8.70
2023-01-10T09:25:57.946Z,9.50
2023-01-10T09:28:26.251Z,10.10
2023-01-10T09:30:54.649Z,10.20
2023-01-10T09:33:23.108Z,9.80
2023-01-10T09:35:51.403Z,8.60
2023-01-10T09:38:22.326Z,8.10
2023-01-10T09:41:15.178Z,8.50
2023-01-10T09:44:01.369Z,9.20
2023-01-10T09:46:45.523Z,9.60
2023-01-10T09:51:54.281Z,9.60
2023-01-10T09:54:32.802Z,9.50
2023-01-10T09:57:03.478Z,8.50
2023-01-10T09:59:38.917Z,9.10
2023-01-10T10:02:23.184Z,9.10
2023-01-10T10:05:09.418Z,9.00
2023-01-10T10:07:37.942Z,8.50
2023-01-10T10:10:07.944Z,8.90
2023-01-10T10:12:50.134Z,9.20
2023-01-10T10:15:30.942Z,9.80
2023-01-10T10:18:12.184Z,9.30
2023-01-10T10:20:55.098Z,8.40
2023-01-10T10:23:48.426Z,8.40
2023-01-10T10:26:28.870Z,8.50
2023-01-10T10:29:32.094Z,9.10
2023-01-10T10:32:31.839Z,8.30
2023-01-10T10:35:05.038Z,8.50
2023-01-10T10:37:40.743Z,8.50
2023-01-10T10:40:19.591Z,9.00
2023-01-10T10:42:52.109Z,8.20
2023-01-10T10:45:39.495Z,8.70
2023-01-10T10:48:17.083Z,8.60
2023-01-10T10:50:56.741Z,8.60
2023-01-10T10:53:25.049Z,9.00
2023-01-10T10:55:54.158Z,9.00
2023-01-10T10:58:22.632Z,9.20
2023-01-10T11:00:52.782Z,8.10
2023-01-10T11:03:33.370Z,8.40
2023-01-10T11:06:02.811Z,9.00
2023-01-10T11:08:32.037Z,9.10
2023-01-10T11:11:03.464Z,8.40
2023-01-10T11:13:44.688Z,8.10
2023-01-10T11:16:31.368Z,8.20
2023-01-10T11:19:22.632Z,8.70
2023-01-10T11:22:00.228Z,8.40
2023-01-10T11:24:31.808Z,8.90
2023-01-10T11:27:03.051Z,9.60
2023-01-10T11:29:40.825Z,9.20
2023-01-10T11:32:16.397Z,9.00
2023-01-10T11:34:53.892Z,9.30
2023-01-10T11:37:29.071Z,8.70
2023-01-10T11:40:26.266Z,8.50
2023-01-10T11:42:59.163Z,8.70
2023-01-10T11:45:34.424Z,8.70
2023-01-10T11:48:10.958Z,9.10
2023-01-10T11:50:42.811Z,9.50
2023-01-10T11:53:37.610Z,9.40
2023-01-10T11:56:08.217Z,9.60
2023-01-10T11:58:38.398Z,9.20
2023-01-10T12:01:07.362Z,8.80
2023-01-10T12:03:40.304Z,9.50
2023-01-10T12:06:16.466Z,9.70
2023-01-10T12:08:45.291Z,10.00
2023-01-10T12:11:30.413Z,9.80
2023-01-10T12:14:01.265Z,10.10
2023-01-10T12:16:31.543Z,9.50
2023-01-10T12:19:04.515Z,9.00
2023-01-10T12:21:39.766Z,9.30
2023-01-10T12:24:16.339Z,9.70
2023-01-10T12:26:47.348Z,9.50
2023-01-10T12:29:22.023Z,9.70
2023-01-10T12:31:52.728Z,9.50
2023-01-10T12:34:27.102Z,9.40
2023-01-10T12:37:06.614Z,9.20
2023-01-10T12:39:41.321Z,9.70
2023-01-10T12:42:41.207Z,9.70
2023-01-10T12:45:17.059Z,9.60
2023-01-10T12:47:59.621Z,9.80
2023-01-10T12:50:34.657Z,9.40
2023-01-10T12:53:08.081Z,9.50
2023-01-10T12:55:41.854Z,10.10
2023-01-10T12:58:21.880Z,10.10
2023-01-10T13:00:54.843Z,9.90
2023-01-10T13:03:28.812Z,9.60
2023-01-10T13:05:59.545Z,9.40
2023-01-10T13:08:31.338Z,9.70
2023-01-10T13:11:01.975Z,9.40
2023-01-10T13:13:36.258Z,9.10
2023-01-10T13:16:32.107Z,9.10
2023-01-10T13:19:23.366Z,9.80
2023-01-10T13:22:15.561Z,9.50
2023-01-10T13:24:55.540Z,9.70
2023-01-10T13:27:27.325Z,9.70
2023-01-10T13:29:55.771Z,9.30
2023-01-10T13:32:29.666Z,9.40
2023-01-10T13:35:15.144Z,9.50
2023-01-10T13:37:52.345Z,9.50
2023-01-10T13:40:27.473Z,9.40
2023-01-10T13:43:46.111Z,9.40
2023-01-10T13:46:50.083Z,9.50
2023-01-10T13:49:48.703Z,9.10
2023-01-10T13:52:38.036Z,8.90
2023-01-10T13:55:29.685Z,9.00
2023-01-10T13:58:00.315Z,9.00
2023-01-10T14:01:04.906Z,9.00
2023-01-10T14:03:53.896Z,9.00
2023-01-10T14:06:41.233Z,9.20
2023-01-10T14:09:36.872Z,9.10
2023-01-10T14:12:17.988Z,9.00
2023-01-10T14:15:00.706Z,8.80
2023-01-10T14:17:31.440Z,9.30
2023-01-10T14:20:09.324Z,9.40
2023-01-10T14:22:39.811Z,9.20
2023-01-10T14:25:19.461Z,9.30
2023-01-10T14:27:52.699Z,9.00
2023-01-10T14:30:26.959Z,9.00
2023-01-10T14:32:58.481Z,9.00
2023-01-10T14:35:37.289Z,8.90
2023-01-10T14:38:08.898Z,8.90
2023-01-10T14:40:43.264Z,9.10
2023-01-10T14:43:18.016Z,9.00
2023-01-10T14:45:55.148Z,8.70
2023-01-10T14:48:32.823Z,8.80
2023-01-10T14:51:24.211Z,8.90
2023-01-10T14:54:02.244Z,8.90
2023-01-10T14:56:37.876Z,8.80
2023-01-10T14:59:29.445Z,8.80
2023-01-10T15:02:01.539Z,9.00
2023-01-10T15:04:33.405Z,8.80
2023-01-10T15:07:04.157Z,8.90
2023-01-10T15:09:33.680Z,9.00
